createdAt,value
2023-02-24T00:00:32.771Z,7.60
2023-02-24T00:15:22.762Z,9.10
2023-02-24T00:17:51.926Z,9.60
2023-02-24T00:20:20.300Z,8.10
2023-02-24T00:22:50.515Z,7.60
2023-02-24T00:25:19.670Z,7.90
2023-02-24T00:30:21.688Z,8.70
2023-02-24T00:32:54.490Z,8.50
2023-02-24T00:35:22.933Z,8.80
2023-02-24T00:37:51.617Z,9.10
2023-02-24T00:40:23.923Z,8.80
2023-02-24T00:42:54.936Z,7.40
2023-02-24T00:45:23.530Z,9.10
2023-02-24T00:47:57.782Z,8.30
2023-02-24T00:50:26.178Z,8.60
2023-02-24T00:52:54.308Z,7.80
2023-02-24T00:55:23.579Z,7.70
2023-02-24T00:57:51.892Z,8.50
2023-02-24T01:00:20.398Z,9.30
2023-02-24T01:02:49.804Z,9.30
2023-02-24T01:05:20.309Z,8.90
2023-02-24T01:07:48.886Z,8.90
2023-02-24T01:10:18.610Z,8.40
2023-02-24T01:12:51.283Z,8.30
2023-02-24T01:15:20.966Z,7.50
2023-02-24T01:17:50.035Z,7.90
2023-02-24T01:20:19.280Z,8.60
2023-02-24T01:22:53.248Z,8.30
2023-02-24T01:25:22.737Z,9.10
2023-02-24T01:27:50.964Z,8.10
2023-02-24T01:30:20.909Z,9.20
2023-02-24T01:32:51.373Z,9.20
2023-02-24T01:35:23.589Z,8.20
2023-02-24T01:37:53.547Z,8.70
2023-02-24T01:40:22.053Z,7.40
2023-02-24T01:42:52.356Z,6.60
2023-02-24T01:45:23.148Z,9.60
2023-02-24T01:47:52.724Z,9.50
2023-02-24T01:50:21.944Z,8.90
2023-02-24T01:52:52.196Z,9.20
2023-02-24T01:55:29.364Z,8.50
2023-02-24T01:57:59.158Z,8.70
2023-02-24T02:00:47.936Z,10.00
2023-02-24T02:03:33.993Z,8.70
2023-02-24T02:06:08.025Z,9.80
2023-02-24T02:08:37.578Z,8.50
2023-02-24T02:11:08.949Z,9.00
2023-02-24T02:13:43.456Z,10.10
2023-02-24T02:16:18.159Z,10.60
2023-02-24T02:18:56.475Z,9.80
2023-02-24T02:22:02.622Z,10.20
2023-02-24T02:24:58.929Z,8.30
2023-02-24T02:28:07.139Z,8.10
2023-02-24T02:30:51.169Z,10.00
2023-02-24T02:33:39.750Z,9.90
2023-02-24T02:36:22.691Z,10.30
2023-02-24T02:41:36.689Z,8.80
2023-02-24T02:44:34.682Z,10.10
2023-02-24T02:47:30.489Z,9.50
2023-02-24T02:50:21.614Z,10.00
2023-02-24T02:53:04.187Z,10.40
2023-02-24T02:55:36.398Z,10.50
2023-02-24T02:58:09.450Z,11.20
2023-02-24T03:00:50.308Z,11.00
2023-02-24T03:03:20.317Z,10.30
2023-02-24T03:05:57.645Z,9.80
2023-02-24T03:08:29.765Z,8.20
2023-02-24T03:11:00.630Z,9.00
2023-02-24T03:13:32.216Z,9.80
2023-02-24T03:16:00.925Z,10.60
2023-02-24T03:18:32.529Z,10.80
2023-02-24T03:21:13.156Z,9.60
2023-02-24T03:23:49.885Z,9.00
2023-02-24T03:26:50.252Z,10.30
2023-02-24T03:29:30.765Z,9.30
2023-02-24T03:32:18.698Z,9.60
2023-02-24T03:34:50.686Z,10.00
2023-02-24T03:37:26.039Z,10.50
2023-02-24T03:39:55.204Z,10.00
2023-02-24T03:42:23.959Z,9.10
2023-02-24T03:44:52.725Z,10.10
2023-02-24T03:47:21.365Z,9.30
2023-02-24T03:49:50.519Z,9.30
2023-02-24T03:52:47.525Z,9.70
2023-02-24T03:55:22.416Z,10.20
2023-02-24T03:58:10.504Z,10.20
2023-02-24T04:01:05.923Z,10.00
2023-02-24T04:04:13.093Z,9.30
2023-02-24T04:07:06.476Z,8.80
2023-02-24T04:10:12.992Z,9.80
2023-02-24T04:13:07.187Z,9.20
2023-02-24T04:15:40.005Z,8.70
2023-02-24T04:18:21.762Z,8.80
2023-02-24T04:20:53.587Z,9.00
2023-02-24T04:23:27.855Z,9.40
2023-02-24T04:26:00.894Z,8.60
2023-02-24T04:28:30.135Z,8.40
2023-02-24T04:31:06.117Z,8.90
2023-02-24T04:33:35.863Z,9.20
2023-02-24T04:36:05.294Z,9.30
2023-02-24T04:38:36.762Z,10.20
2023-02-24T04:41:07.192Z,8.90
2023-02-24T04:43:36.349Z,8.60
2023-02-24T04:46:08.251Z,9.00
2023-02-24T04:48:36.633Z,8.10
2023-02-24T04:51:07.279Z,9.10
2023-02-24T04:53:36.834Z,9.90
2023-02-24T04:56:12.399Z,9.30
2023-02-24T04:58:42.947Z,8.90
2023-02-24T05:01:11.461Z,8.80
2023-02-24T05:03:44.554Z,9.40
2023-02-24T05:06:16.861Z,9.20
2023-02-24T05:08:45.185Z,8.70
2023-02-24T05:11:17.044Z,8.70
2023-02-24T05:13:47.299Z,9.20
2023-02-24T05:16:18.137Z,8.00
2023-02-24T05:18:49.783Z,9.80
2023-02-24T05:21:36.621Z,9.50
2023-02-24T05:24:08.247Z,8.60
2023-02-24T05:26:43.933Z,9.00
2023-02-24T05:29:15.249Z,9.00
2023-02-24T05:31:44.635Z,9.50
2023-02-24T05:34:17.704Z,10.10
2023-02-24T05:36:46.669Z,9.60
2023-02-24T05:39:19.513Z,8.10
2023-02-24T05:41:49.260Z,9.00
2023-02-24T05:44:23.106Z,9.50
2023-02-24T05:46:56.969Z,8.90
2023-02-24T05:49:29.516Z,8.60
2023-02-24T05:52:01.036Z,9.50
2023-02-24T05:54:34.255Z,9.10
2023-02-24T05:57:05.308Z,9.30
2023-02-24T05:59:33.713Z,7.40
2023-02-24T06:02:07.855Z,8.80
2023-02-24T06:04:40.942Z,9.50
2023-02-24T06:07:14.731Z,9.30
2023-02-24T06:09:45.359Z,9.30
2023-02-24T06:12:16.679Z,9.20
2023-02-24T06:14:47.654Z,9.60
2023-02-24T06:17:19.265Z,9.50
2023-02-24T06:19:50.252Z,7.40
2023-02-24T06:22:23.540Z,9.00
2023-02-24T06:24:54.360Z,8.10
2023-02-24T06:27:25.478Z,7.90
2023-02-24T06:29:59.014Z,8.90
2023-02-24T06:32:31.540Z,9.90
2023-02-24T06:35:00.744Z,9.40
2023-02-24T06:37:30.284Z,9.20
2023-02-24T06:39:58.957Z,8.70
2023-02-24T06:42:28.064Z,8.10
2023-02-24T06:44:56.633Z,9.20
2023-02-24T06:47:24.955Z,9.70
2023-02-24T06:49:53.782Z,8.50
2023-02-24T06:52:22.047Z,9.80
2023-02-24T06:54:52.589Z,7.70
2023-02-24T06:57:21.090Z,8.60
2023-02-24T06:59:49.577Z,7.80
2023-02-24T07:02:18.062Z,8.00
2023-02-24T07:04:47.849Z,9.00
2023-02-24T07:07:17.769Z,8.30
2023-02-24T07:09:49.321Z,8.40
2023-02-24T07:12:21.233Z,9.00
2023-02-24T07:14:50.680Z,8.40
2023-02-24T07:17:24.017Z,8.50
2023-02-24T07:19:54.778Z,8.70
2023-02-24T07:22:25.513Z,8.60
2023-02-24T07:25:00.826Z,8.60
2023-02-24T07:27:30.796Z,8.30
2023-02-24T07:29:59.480Z,9.20
2023-02-24T07:32:28.549Z,9.10
2023-02-24T07:34:56.852Z,9.10
2023-02-24T07:37:25.112Z,8.90
2023-02-24T07:39:53.468Z,9.00
2023-02-24T07:42:22.732Z,9.20
2023-02-24T07:44:57.655Z,8.30
2023-02-24T07:47:26.748Z,8.90
2023-02-24T07:49:55.620Z,9.10
2023-02-24T07:52:23.838Z,8.40
2023-02-24T07:54:52.080Z,8.50
2023-02-24T08:10:37.061Z,8.30
2023-02-24T08:13:12.254Z,8.50
2023-02-24T08:15:40.785Z,8.80
2023-02-24T08:35:36.085Z,7.80
2023-02-24T08:38:07.850Z,7.40
2023-02-24T08:40:40.071Z,7.60
2023-02-24T08:56:09.893Z,7.90
2023-02-24T08:58:47.739Z,8.00
2023-02-24T09:01:24.811Z,7.20
2023-02-24T09:03:58.822Z,7.80
2023-02-24T09:06:38.042Z,8.40
2023-02-24T09:09:17.872Z,8.20
2023-02-24T09:11:59.053Z,8.00
2023-02-24T09:14:29.577Z,7.80
2023-02-24T09:17:11.823Z,7.90
2023-02-24T09:32:19.162Z,8.00
2023-02-24T09:34:47.894Z,9.10
2023-02-24T09:37:25.236Z,8.50
2023-02-24T09:39:57.262Z,8.20
2023-02-24T09:42:29.656Z,7.60
2023-02-24T09:45:11.635Z,7.60
2023-02-24T10:01:48.057Z,8.80
2023-02-24T10:04:23.234Z,7.90
2023-02-24T10:06:58.602Z,8.40
2023-02-24T10:09:34.731Z,8.30
2023-02-24T10:12:17.612Z,8.50
2023-02-24T10:15:32.486Z,7.60
2023-02-24T10:30:20.162Z,8.20
2023-02-24T10:33:00.753Z,8.90
2023-02-24T10:35:34.167Z,8.30
2023-02-24T10:38:06.343Z,7.80
2023-02-24T10:40:56.998Z,7.60
2023-02-24T10:43:33.961Z,7.60
2023-02-24T10:46:17.666Z,8.40
2023-02-24T10:49:05.110Z,8.30
2023-02-24T10:51:42.071Z,8.50
2023-02-24T10:54:45.274Z,8.70
2023-02-24T10:57:58.146Z,7.80
2023-02-24T11:00:57.593Z,8.40
2023-02-24T11:03:36.432Z,8.80
2023-02-24T11:06:06.143Z,7.80
2023-02-24T11:08:48.859Z,8.90
2023-02-24T11:11:29.992Z,9.00
2023-02-24T11:14:18.753Z,9.30
2023-02-24T11:17:14.517Z,8.00
2023-02-24T11:19:55.191Z,9.10
2023-02-24T11:22:32.300Z,9.20
2023-02-24T11:25:07.106Z,8.70
2023-02-24T11:27:35.487Z,7.90
2023-02-24T11:30:26.588Z,9.20
2023-02-24T11:33:09.446Z,9.30
2023-02-24T11:36:03.203Z,9.30
2023-02-24T11:38:45.914Z,8.70
2023-02-24T11:41:20.785Z,9.00
2023-02-24T11:44:02.960Z,8.30
2023-02-24T11:46:52.972Z,9.10
2023-02-24T11:50:04.833Z,9.20
2023-02-24T11:52:54.551Z,9.60
2023-02-24T11:56:32.538Z,8.70
2023-02-24T11:59:16.695Z,9.70
2023-02-24T12:01:56.032Z,9.10
2023-02-24T12:04:43.560Z,9.40
2023-02-24T12:07:21.163Z,9.50
2023-02-24T12:10:15.642Z,9.30
2023-02-24T12:13:14.762Z,9.30
2023-02-24T12:15:47.146Z,9.00
2023-02-24T12:18:30.766Z,9.40
2023-02-24T12:21:05.917Z,9.30
2023-02-24T12:23:35.006Z,9.40
2023-02-24T12:26:16.083Z,9.60
2023-02-24T12:29:10.984Z,9.10
2023-02-24T12:31:43.880Z,9.30
2023-02-24T12:34:24.128Z,9.40
2023-02-24T12:36:59.887Z,9.20
2023-02-24T12:39:54.781Z,9.00
2023-02-24T12:42:36.171Z,9.50
2023-02-24T12:45:38.473Z,8.70
2023-02-24T12:48:29.067Z,9.50
2023-02-24T12:51:00.401Z,8.60
2023-02-24T12:54:05.645Z,9.50
2023-02-24T12:57:11.121Z,9.30
2023-02-24T12:59:44.267Z,8.50
2023-02-24T13:02:13.548Z,9.70
2023-02-24T13:05:03.932Z,8.90
2023-02-24T13:07:53.700Z,8.60
2023-02-24T13:10:28.576Z,8.60
2023-02-24T13:13:15.930Z,8.90
2023-02-24T13:15:58.376Z,9.00
2023-02-24T13:18:32.164Z,8.80
2023-02-24T13:21:20.575Z,8.40
2023-02-24T13:24:20.571Z,7.90
2023-02-24T13:26:49.116Z,8.20
2023-02-24T13:29:17.804Z,8.50
2023-02-24T13:31:51.443Z,7.60
2023-02-24T13:34:43.310Z,8.50
2023-02-24T13:37:12.331Z,7.80
2023-02-24T13:39:47.412Z,8.30
2023-02-24T13:42:24.866Z,8.40
2023-02-24T13:45:10.155Z,8.80
2023-02-24T13:47:50.001Z,7.90
2023-02-24T13:50:38.348Z,8.10
2023-02-24T13:53:29.977Z,8.60
2023-02-24T13:56:30.813Z,8.10
2023-02-24T13:59:05.859Z,8.30
2023-02-24T14:02:08.255Z,8.00
2023-02-24T14:07:10.056Z,7.40
2023-02-24T14:09:51.399Z,7.40
2023-02-24T14:12:22.035Z,8.90
2023-02-24T14:14:50.921Z,8.70
2023-02-24T14:17:32.204Z,8.40
2023-02-24T14:20:17.284Z,8.00
2023-02-24T14:22:53.487Z,7.00
2023-02-24T14:25:23.019Z,7.80
2023-02-24T14:28:01.879Z,7.40
2023-02-24T14:30:36.154Z,8.00
2023-02-24T14:33:07.493Z,8.40
2023-02-24T14:35:43.183Z,7.70
2023-02-24T14:38:39.677Z,7.90
2023-02-24T14:41:27.453Z,8.10
2023-02-24T14:44:30.142Z,8.10
2023-02-24T14:47:15.786Z,8.00
2023-02-24T14:50:07.495Z,8.50
2023-02-24T14:52:45.815Z,8.00
2023-02-24T14:55:28.260Z,7.50
2023-02-24T14:58:34.682Z,8.10
2023-02-24T15:01:28.902Z,8.50
2023-02-24T15:04:45.421Z,7.30
2023-02-24T15:07:22.230Z,8.90
2023-02-24T15:09:50.937Z,7.40
2023-02-24T15:12:19.420Z,7.80
2023-02-24T15:14:57.750Z,7.60
2023-02-24T15:17:26.427Z,7.70
2023-02-24T15:19:55.314Z,8.00
2023-02-24T15:22:33.322Z,8.00
2023-02-24T15:25:22.361Z,8.10
2023-02-24T15:27:55.479Z,7.50
2023-02-24T15:33:05.144Z,8.00
2023-02-24T15:35:35.012Z,7.80
2023-02-24T15:38:19.519Z,7.90
2023-02-24T15:40:58.559Z,8.00
2023-02-24T15:43:37.305Z,8.30
2023-02-24T15:46:27.227Z,8.00
2023-02-24T15:49:02.022Z,8.40
2023-02-24T15:51:47.469Z,8.90
2023-02-24T15:54:21.175Z,9.00
2023-02-24T15:56:49.558Z,8.00
2023-02-24T15:59:18.524Z,8.30
2023-02-24T16:01:46.840Z,8.30
2023-02-24T16:04:15.081Z,9.50
2023-02-24T16:06:54.749Z,9.40
2023-02-24T16:09:38.908Z,10.10
2023-02-24T16:12:15.647Z,9.30
2023-02-24T16:14:44.377Z,10.00
2023-02-24T16:17:41.533Z,9.10
2023-02-24T16:20:18.413Z,9.20
2023-02-24T16:22:47.099Z,9.40
2023-02-24T16:25:17.508Z,10.10
2023-02-24T16:27:58.374Z,10.30
2023-02-24T16:30:44.140Z,9.80
2023-02-24T16:33:29.422Z,10.40
2023-02-24T16:36:15.320Z,10.30
2023-02-24T16:39:08.012Z,9.20
2023-02-24T16:41:59.562Z,8.50
2023-02-24T16:44:48.619Z,10.20
2023-02-24T16:48:12.481Z,9.20
2023-02-24T16:50:42.623Z,9.50
2023-02-24T16:53:16.861Z,10.20
2023-02-24T16:55:45.542Z,9.60
2023-02-24T16:58:14.301Z,10.80
2023-02-24T17:00:44.629Z,8.70
2023-02-24T17:03:19.664Z,9.60
2023-02-24T17:05:49.895Z,11.00
2023-02-24T17:08:18.990Z,9.10
2023-02-24T17:10:47.783Z,10.10
2023-02-24T17:13:19.856Z,9.60
2023-02-24T17:15:55.511Z,9.70
2023-02-24T17:18:24.820Z,9.90
2023-02-24T17:20:53.520Z,9.70
2023-02-24T17:23:22.792Z,10.00
2023-02-24T17:25:53.588Z,9.50
2023-02-24T17:28:22.116Z,9.30
2023-02-24T17:30:51.116Z,10.80
2023-02-24T17:33:21.032Z,10.50
2023-02-24T17:35:49.307Z,9.20
2023-02-24T17:38:21.713Z,7.20
2023-02-24T17:40:50.070Z,9.70
2023-02-24T17:43:19.397Z,8.90
2023-02-24T17:45:47.797Z,9.20
2023-02-24T17:48:18.270Z,9.10
2023-02-24T17:50:47.681Z,9.80
2023-02-24T17:53:16.164Z,9.50
2023-02-24T17:56:01.960Z,9.70
2023-02-24T17:58:31.780Z,9.70
2023-02-24T18:01:02.473Z,9.60
2023-02-24T18:03:32.226Z,9.90
2023-02-24T18:06:02.338Z,9.90
2023-02-24T18:08:33.794Z,10.10
2023-02-24T18:11:02.789Z,9.70
2023-02-24T18:13:32.663Z,9.80
2023-02-24T18:16:01.241Z,8.70
2023-02-24T18:18:30.698Z,9.90
2023-02-24T18:21:02.867Z,9.00
2023-02-24T18:23:32.903Z,8.30
2023-02-24T18:26:04.615Z,9.40
2023-02-24T18:28:35.582Z,9.20
2023-02-24T18:31:19.174Z,9.50
2023-02-24T18:33:48.514Z,8.50
2023-02-24T18:36:16.989Z,9.40
2023-02-24T18:38:46.420Z,9.60
2023-02-24T18:41:18.631Z,9.80
2023-02-24T18:43:51.237Z,9.10
2023-02-24T18:46:20.183Z,8.80
2023-02-24T18:48:50.543Z,9.60
2023-02-24T18:51:21.030Z,8.60
2023-02-24T18:53:52.154Z,9.10
2023-02-24T18:56:23.925Z,8.80
2023-02-24T18:58:58.386Z,9.60
2023-02-24T19:01:29.229Z,9.20
2023-02-24T19:03:57.721Z,9.40
2023-02-24T19:06:27.202Z,10.40
2023-02-24T19:09:12.579Z,9.90
2023-02-24T19:11:41.048Z,9.40
2023-02-24T19:14:11.996Z,9.50
2023-02-24T19:16:40.530Z,7.30
2023-02-24T19:19:13.936Z,9.30
2023-02-24T19:21:45.841Z,10.60
2023-02-24T19:24:17.346Z,9.50
2023-02-24T19:26:48.857Z,9.90
2023-02-24T19:29:22.850Z,10.00
2023-02-24T19:31:54.664Z,9.90
2023-02-24T19:34:24.324Z,9.80
2023-02-24T19:36:53.626Z,11.10
2023-02-24T19:39:22.885Z,10.20
2023-02-24T19:41:53.576Z,10.30
2023-02-24T19:44:25.631Z,10.30
2023-02-24T19:46:54.321Z,10.30
2023-02-24T19:49:22.915Z,9.60
2023-02-24T19:51:57.798Z,10.00
2023-02-24T19:54:26.938Z,10.50
2023-02-24T19:56:57.569Z,10.20
2023-02-24T19:59:26.470Z,9.90
2023-02-24T20:01:56.999Z,10.40
2023-02-24T20:04:25.656Z,9.50
2023-02-24T20:06:57.752Z,10.10
2023-02-24T20:09:27.214Z,10.00
2023-02-24T20:11:59.444Z,10.10
2023-02-24T20:14:28.677Z,9.90
2023-02-24T20:16:57.042Z,10.10
2023-02-24T20:19:27.342Z,10.20
2023-02-24T20:21:55.715Z,10.30
2023-02-24T20:24:24.403Z,9.80
2023-02-24T20:26:53.155Z,10.50
2023-02-24T20:29:22.206Z,9.90
2023-02-24T20:31:51.508Z,9.60
2023-02-24T20:34:20.880Z,10.50
2023-02-24T20:36:56.640Z,10.50
2023-02-24T20:39:25.340Z,9.80
2023-02-24T20:41:54.963Z,9.10
2023-02-24T20:44:24.969Z,9.20
2023-02-24T20:46:53.349Z,10.20
2023-02-24T20:49:21.979Z,10.40
2023-02-24T20:51:50.425Z,10.30
2023-02-24T20:54:18.903Z,9.50
2023-02-24T20:56:53.615Z,10.90
2023-02-24T20:59:23.032Z,10.50
2023-02-24T21:01:52.161Z,10.00
2023-02-24T21:04:27.022Z,9.90
2023-02-24T21:07:16.550Z,9.70
2023-02-24T21:10:21.620Z,9.80
2023-02-24T21:13:22.608Z,9.60
2023-02-24T21:16:06.432Z,9.20
2023-02-24T21:18:36.345Z,10.60
2023-02-24T21:21:08.126Z,10.60
2023-02-24T21:23:46.985Z,10.90
2023-02-24T21:26:36.323Z,10.40
2023-02-24T21:29:19.381Z,10.70
2023-02-24T21:31:56.882Z,10.20
2023-02-24T21:34:30.267Z,10.20
2023-02-24T21:37:06.225Z,10.00
2023-02-24T21:39:39.663Z,10.90
2023-02-24T21:42:13.281Z,10.90
2023-02-24T21:44:44.723Z,10.70
2023-02-24T21:47:15.987Z,10.80
2023-02-24T21:49:50.414Z,11.20
2023-02-24T21:52:31.119Z,11.10
2023-02-24T21:55:01.760Z,11.00
2023-02-24T21:57:42.325Z,11.00
2023-02-24T22:00:30.583Z,10.90
2023-02-24T22:03:15.309Z,11.20
2023-02-24T22:06:02.669Z,11.60
2023-02-24T22:08:43.844Z,11.60
2023-02-24T22:11:16.810Z,11.20
2023-02-24T22:13:50.312Z,11.10
2023-02-24T22:16:26.190Z,11.10
2023-02-24T22:18:57.617Z,11.20
2023-02-24T22:21:33.697Z,11.60
2023-02-24T22:24:18.776Z,12.10
2023-02-24T22:26:55.758Z,12.00
2023-02-24T22:29:44.728Z,11.40
2023-02-24T22:32:47.384Z,11.90
2023-02-24T22:35:15.803Z,12.70
2023-02-24T22:37:46.636Z,11.80
2023-02-24T22:40:15.020Z,12.40
2023-02-24T22:42:49.237Z,12.70
2023-02-24T22:45:17.611Z,11.70
2023-02-24T22:47:46.346Z,11.90
2023-02-24T22:50:16.029Z,12.40
2023-02-24T22:52:44.193Z,11.20
2023-02-24T22:55:13.868Z,12.90
2023-02-24T22:57:42.179Z,11.90
2023-02-24T23:00:11.710Z,12.20
2023-02-24T23:02:41.913Z,12.10
2023-02-24T23:05:13.876Z,12.10
2023-02-24T23:07:45.636Z,12.00
2023-02-24T23:10:14.015Z,12.80
2023-02-24T23:12:42.499Z,12.70
2023-02-24T23:15:11.393Z,12.60
2023-02-24T23:17:41.625Z,12.10
2023-02-24T23:20:13.895Z,12.50
2023-02-24T23:22:43.295Z,12.30
2023-02-24T23:25:12.326Z,12.50
2023-02-24T23:27:41.031Z,13.30
2023-02-24T23:30:11.968Z,13.30
2023-02-24T23:32:41.462Z,10.90
2023-02-24T23:35:12.993Z,13.60
2023-02-24T23:37:41.562Z,14.40
2023-02-24T23:40:11.509Z,13.60
2023-02-24T23:42:40.180Z,13.30
2023-02-24T23:45:09.888Z,13.30
2023-02-24T23:47:41.850Z,13.90
2023-02-24T23:50:11.261Z,12.60
2023-02-24T23:52:40.051Z,12.80
2023-02-24T23:55:14.373Z,13.80
2023-02-24T23:57:43.552Z,13.20
